Terminal Aerodrome Forecast
Issued by NWS

Home | Current Version | Previous Version | Text Only | Print | Product List | Glossary Off
Versions: 1 2 3 4 5 6 7 8 9 10 11 12

000
FTUS42 KTBW 301121
TAFPIE
TAF
KPIE 301121Z 3012/3112 31005KT P6SM SCT070 SCT250
     FM301400 04006KT P6SM SCT025 BKN250
     FM301900 32009KT P6SM SCT040 BKN250
     FM310200 VRB03KT P6SM FEW060 SCT250=

USA.gov is the U.S. government's official web portal to all federal, state and local government web resources and services.